sensor_id;sensor_type;location;lat;lon;timestamp;pressure;altitude;pressure_sealevel;temperature;humidity
47983;BME280;33751;50.816;-1.214;2023-12-22T00:00:39;101364.90;;;27.13;100.00
47983;BME280;33751;50.816;-1.214;2023-12-22T00:03:06;101359.70;;;27.83;100.00
47983;BME280;33751;50.816;-1.214;2023-12-22T00:05:32;101345.02;;;27.57;100.00
47983;BME280;33751;50.816;-1.214;2023-12-22T00:07:59;101334.50;;;27.77;100.00
47983;BME280;33751;50.816;-1.214;2023-12-22T00:10:25;101347.94;;;27.49;100.00
47983;BME280;33751;50.816;-1.214;2023-12-22T00:12:52;101373.69;;;27.44;100.00
47983;BME280;33751;50.816;-1.214;2023-12-22T00:15:18;101355.08;;;27.79;100.00
47983;BME280;33751;50.816;-1.214;2023-12-22T00:17:45;101349.79;;;27.58;100.00
47983;BME280;33751;50.816;-1.214;2023-12-22T00:20:11;101346.97;;;27.51;100.00
47983;BME280;33751;50.816;-1.214;2023-12-22T00:22:39;101353.71;;;27.42;100.00
47983;BME280;33751;50.816;-1.214;2023-12-22T00:25:06;101349.79;;;27.41;100.00
47983;BME280;33751;50.816;-1.214;2023-12-22T00:27:33;101351.34;;;27.42;100.00
47983;BME280;33751;50.816;-1.214;2023-12-22T00:30:00;101348.66;;;27.89;100.00
47983;BME280;33751;50.816;-1.214;2023-12-22T00:32:27;101344.45;;;27.42;100.00
47983;BME280;33751;50.816;-1.214;2023-12-22T00:34:53;101343.64;;;27.49;100.00
47983;BME280;33751;50.816;-1.214;2023-12-22T00:37:20;101350.81;;;27.92;100.00
47983;BME280;33751;50.816;-1.214;2023-12-22T00:39:47;101365.30;;;27.84;100.00
47983;BME280;33751;50.816;-1.214;2023-12-22T00:42:14;101364.92;;;27.64;100.00
47983;BME280;33751;50.816;-1.214;2023-12-22T00:44:41;101363.87;;;27.84;100.00
47983;BME280;33751;50.816;-1.214;2023-12-22T00:47:07;101369.95;;;27.61;100.00
47983;BME280;33751;50.816;-1.214;2023-12-22T00:49:34;101363.85;;;27.41;100.00
47983;BME280;33751;50.816;-1.214;2023-12-22T00:52:00;101379.06;;;27.34;100.00
47983;BME280;33751;50.816;-1.214;2023-12-22T00:54:27;101355.44;;;27.64;100.00
47983;BME280;33751;50.816;-1.214;2023-12-22T00:56:53;101366.84;;;27.40;100.00
47983;BME280;33751;50.816;-1.214;2023-12-22T00:59:20;101375.61;;;27.81;100.00
47983;BME280;33751;50.816;-1.214;2023-12-22T01:01:47;101379.13;;;27.67;100.00
47983;BME280;33751;50.816;-1.214;2023-12-22T01:04:14;101372.45;;;27.51;100.00
47983;BME280;33751;50.816;-1.214;2023-12-22T01:06:40;101379.25;;;27.48;100.00
47983;BME280;33751;50.816;-1.214;2023-12-22T01:09:08;101384.28;;;27.45;100.00
47983;BME280;33751;50.816;-1.214;2023-12-22T01:11:34;101381.55;;;27.37;100.00
47983;BME280;33751;50.816;-1.214;2023-12-22T01:14:00;101378.79;;;27.62;100.00
47983;BME280;33751;50.816;-1.214;2023-12-22T01:16:27;101380.90;;;27.67;100.00
47983;BME280;33751;50.816;-1.214;2023-12-22T01:18:54;101386.64;;;27.30;100.00
47983;BME280;33751;50.816;-1.214;2023-12-22T01:21:20;101382.01;;;27.75;100.00
47983;BME280;33751;50.816;-1.214;2023-12-22T01:23:46;101377.81;;;27.36;100.00
47983;BME280;33751;50.816;-1.214;2023-12-22T01:26:13;101378.28;;;27.81;100.00
47983;BME280;33751;50.816;-1.214;2023-12-22T01:28:40;101381.04;;;27.27;100.00
47983;BME280;33751;50.816;-1.214;2023-12-22T01:31:07;101378.41;;;27.26;100.00
47983;BME280;33751;50.816;-1.214;2023-12-22T01:33:33;101376.49;;;27.34;100.00
47983;BME280;33751;50.816;-1.214;2023-12-22T01:36:00;101371.25;;;27.61;100.00
47983;BME280;33751;50.816;-1.214;2023-12-22T01:38:26;101371.68;;;27.30;100.00
47983;BME280;33751;50.816;-1.214;2023-12-22T01:40:53;101365.41;;;27.55;100.00
47983;BME280;33751;50.816;-1.214;2023-12-22T01:43:20;101363.88;;;27.81;100.00
47983;BME280;33751;50.816;-1.214;2023-12-22T01:45:47;101359.75;;;27.80;100.00
47983;BME280;33751;50.816;-1.214;2023-12-22T01:48:14;101361.33;;;27.86;100.00
47983;BME280;33751;50.816;-1.214;2023-12-22T01:50:41;101362.29;;;27.76;100.00
47983;BME280;33751;50.816;-1.214;2023-12-22T01:53:09;101356.79;;;27.47;100.00
47983;BME280;33751;50.816;-1.214;2023-12-22T01:55:35;101345.72;;;27.74;100.00
47983;BME280;33751;50.816;-1.214;2023-12-22T01:58:02;101348.24;;;27.31;100.00
47983;BME280;33751;50.816;-1.214;2023-12-22T02:00:29;101354.09;;;27.34;100.00
47983;BME280;33751;50.816;-1.214;2023-12-22T02:02:56;101358.15;;;27.18;100.00
47983;BME280;33751;50.816;-1.214;2023-12-22T02:05:23;101354.93;;;27.58;100.00
47983;BME280;33751;50.816;-1.214;2023-12-22T02:07:49;101358.89;;;27.53;100.00
47983;BME280;33751;50.816;-1.214;2023-12-22T02:10:16;101357.43;;;27.28;100.00
47983;BME280;33751;50.816;-1.214;2023-12-22T02:12:42;101353.81;;;27.65;100.00
47983;BME280;33751;50.816;-1.214;2023-12-22T02:15:09;101350.11;;;27.54;100.00
47983;BME280;33751;50.816;-1.214;2023-12-22T02:17:43;101355.41;;;27.32;100.00
47983;BME280;33751;50.816;-1.214;2023-12-22T02:20:11;101356.91;;;27.95;100.00
47983;BME280;33751;50.816;-1.214;2023-12-22T02:22:38;101352.00;;;27.49;100.00
47983;BME280;33751;50.816;-1.214;2023-12-22T02:25:05;101350.75;;;27.76;100.00
47983;BME280;33751;50.816;-1.214;2023-12-22T02:27:36;101345.93;;;27.68;100.00
47983;BME280;33751;50.816;-1.214;2023-12-22T02:30:09;101344.50;;;27.59;100.00
47983;BME280;33751;50.816;-1.214;2023-12-22T02:32:41;101345.24;;;27.63;100.00
47983;BME280;33751;50.816;-1.214;2023-12-22T02:35:11;101337.98;;;27.34;100.00
47983;BME280;33751;50.816;-1.214;2023-12-22T02:37:41;101336.57;;;27.58;100.00
47983;BME280;33751;50.816;-1.214;2023-12-22T02:40:09;101341.72;;;27.62;100.00
47983;BME280;33751;50.816;-1.214;2023-12-22T02:42:38;101350.59;;;27.19;100.00
47983;BME280;33751;50.816;-1.214;2023-12-22T02:45:06;101351.22;;;27.45;100.00
47983;BME280;33751;50.816;-1.214;2023-12-22T02:47:33;101350.61;;;27.46;100.00
47983;BME280;33751;50.816;-1.214;2023-12-22T02:50:00;101358.56;;;27.25;100.00
47983;BME280;33751;50.816;-1.214;2023-12-22T02:52:27;101352.76;;;27.44;100.00
47983;BME280;33751;50.816;-1.214;2023-12-22T02:54:54;101354.83;;;27.26;100.00
47983;BME280;33751;50.816;-1.214;2023-12-22T02:57:20;101357.96;;;27.53;100.00
47983;BME280;33751;50.816;-1.214;2023-12-22T02:59:47;101352.87;;;27.54;100.00
47983;BME280;33751;50.816;-1.214;2023-12-22T03:02:14;101349.39;;;27.15;100.00
47983;BME280;33751;50.816;-1.214;2023-12-22T03:04:41;101347.09;;;27.69;100.00
47983;BME280;33751;50.816;-1.214;2023-12-22T03:07:07;101338.99;;;27.44;100.00
47983;BME280;33751;50.816;-1.214;2023-12-22T03:09:34;101335.54;;;27.18;100.00
47983;BME280;33751;50.816;-1.214;2023-12-22T03:12:01;101337.32;;;27.00;100.00
47983;BME280;33751;50.816;-1.214;2023-12-22T03:14:29;101334.10;;;27.41;100.00
47983;BME280;33751;50.816;-1.214;2023-12-22T03:16:56;101329.84;;;27.23;100.00
47983;BME280;33751;50.816;-1.214;2023-12-22T03:19:23;101328.61;;;27.31;100.00
47983;BME280;33751;50.816;-1.214;2023-12-22T03:21:50;101318.14;;;27.45;100.00
47983;BME280;33751;50.816;-1.214;2023-12-22T03:24:17;101320.12;;;27.01;100.00
47983;BME280;33751;50.816;-1.214;2023-12-22T03:26:44;101316.44;;;27.54;100.00
47983;BME280;33751;50.816;-1.214;2023-12-22T03:29:11;101313.35;;;27.77;100.00
47983;BME280;33751;50.816;-1.214;2023-12-22T03:31:38;101310.45;;;27.51;100.00
47983;BME280;33751;50.816;-1.214;2023-12-22T03:34:04;101317.61;;;27.54;100.00
47983;BME280;33751;50.816;-1.214;2023-12-22T03:36:31;101314.74;;;27.21;100.00
47983;BME280;33751;50.816;-1.214;2023-12-22T03:38:57;101315.38;;;27.07;100.00
47983;BME280;33751;50.816;-1.214;2023-12-22T03:41:24;101311.87;;;27.27;100.00
47983;BME280;33751;50.816;-1.214;2023-12-22T03:43:51;101321.62;;;27.38;100.00
47983;BME280;33751;50.816;-1.214;2023-12-22T03:46:17;101322.68;;;27.23;100.00
47983;BME280;33751;50.816;-1.214;2023-12-22T03:48:44;101324.74;;;27.49;100.00
47983;BME280;33751;50.816;-1.214;2023-12-22T03:51:10;101324.04;;;27.51;100.00
47983;BME280;33751;50.816;-1.214;2023-12-22T03:53:37;101328.18;;;26.98;100.00
47983;BME280;33751;50.816;-1.214;2023-12-22T03:56:04;101326.99;;;27.22;100.00
47983;BME280;33751;50.816;-1.214;2023-12-22T03:58:31;101317.96;;;27.50;100.00
47983;BME280;33751;50.816;-1.214;2023-12-22T04:00:57;101321.81;;;27.29;100.00
47983;BME280;33751;50.816;-1.214;2023-12-22T04:03:24;101330.11;;;27.45;100.00
47983;BME280;33751;50.816;-1.214;2023-12-22T04:05:51;101326.91;;;27.38;100.00
47983;BME280;33751;50.816;-1.214;2023-12-22T04:08:19;101332.05;;;27.40;100.00
47983;BME280;33751;50.816;-1.214;2023-12-22T04:10:46;101330.10;;;27.22;100.00
47983;BME280;33751;50.816;-1.214;2023-12-22T04:13:13;101316.36;;;27.08;100.00
47983;BME280;33751;50.816;-1.214;2023-12-22T04:15:41;101310.02;;;27.61;100.00
47983;BME280;33751;50.816;-1.214;2023-12-22T04:18:08;101315.30;;;27.61;100.00
47983;BME280;33751;50.816;-1.214;2023-12-22T04:20:34;101315.21;;;27.17;100.00
47983;BME280;33751;50.816;-1.214;2023-12-22T04:23:01;101311.84;;;27.02;100.00
47983;BME280;33751;50.816;-1.214;2023-12-22T04:25:27;101307.61;;;27.05;100.00
47983;BME280;33751;50.816;-1.214;2023-12-22T04:27:54;101310.56;;;27.34;100.00
47983;BME280;33751;50.816;-1.214;2023-12-22T04:30:20;101306.31;;;27.07;100.00
47983;BME280;33751;50.816;-1.214;2023-12-22T04:32:47;101305.30;;;27.60;100.00
47983;BME280;33751;50.816;-1.214;2023-12-22T04:35:14;101295.09;;;27.33;100.00
47983;BME280;33751;50.816;-1.214;2023-12-22T04:37:40;101295.12;;;27.05;100.00
47983;BME280;33751;50.816;-1.214;2023-12-22T04:40:09;101300.79;;;27.24;100.00
47983;BME280;33751;50.816;-1.214;2023-12-22T04:42:36;101297.66;;;27.26;100.00
47983;BME280;33751;50.816;-1.214;2023-12-22T04:45:04;101294.56;;;27.00;100.00
47983;BME280;33751;50.816;-1.214;2023-12-22T04:47:31;101285.60;;;27.29;100.00
47983;BME280;33751;50.816;-1.214;2023-12-22T04:49:57;101283.63;;;27.51;100.00
47983;BME280;33751;50.816;-1.214;2023-12-22T04:52:24;101277.16;;;27.51;100.00
47983;BME280;33751;50.816;-1.214;2023-12-22T04:54:50;101282.34;;;27.53;100.00
47983;BME280;33751;50.816;-1.214;2023-12-22T04:57:17;101275.63;;;27.19;100.00
47983;BME280;33751;50.816;-1.214;2023-12-22T04:59:43;101281.64;;;27.42;100.00
47983;BME280;33751;50.816;-1.214;2023-12-22T05:02:09;101280.34;;;27.14;100.00
47983;BME280;33751;50.816;-1.214;2023-12-22T05:04:36;101279.55;;;26.98;100.00
47983;BME280;33751;50.816;-1.214;2023-12-22T05:07:04;101291.50;;;27.47;100.00
47983;BME280;33751;50.816;-1.214;2023-12-22T05:09:31;101288.08;;;27.46;100.00
47983;BME280;33751;50.816;-1.214;2023-12-22T05:11:57;101291.96;;;27.53;100.00
47983;BME280;33751;50.816;-1.214;2023-12-22T05:14:24;101288.43;;;27.55;100.00
47983;BME280;33751;50.816;-1.214;2023-12-22T05:16:50;101282.70;;;27.04;100.00
47983;BME280;33751;50.816;-1.214;2023-12-22T05:19:17;101278.38;;;27.33;100.00
47983;BME280;33751;50.816;-1.214;2023-12-22T05:21:43;101270.08;;;27.55;100.00
47983;BME280;33751;50.816;-1.214;2023-12-22T05:24:10;101271.70;;;27.10;100.00
47983;BME280;33751;50.816;-1.214;2023-12-22T05:26:37;101270.59;;;27.03;100.00
47983;BME280;33751;50.816;-1.214;2023-12-22T05:29:03;101275.08;;;27.50;100.00
47983;BME280;33751;50.816;-1.214;2023-12-22T05:31:30;101276.16;;;27.19;100.00
47983;BME280;33751;50.816;-1.214;2023-12-22T05:33:57;101277.22;;;27.35;100.00
47983;BME280;33751;50.816;-1.214;2023-12-22T05:36:24;101278.86;;;27.43;100.00
47983;BME280;33751;50.816;-1.214;2023-12-22T05:38:50;101278.89;;;26.90;100.00
47983;BME280;33751;50.816;-1.214;2023-12-22T05:41:17;101280.51;;;27.32;100.00
47983;BME280;33751;50.816;-1.214;2023-12-22T05:43:44;101285.42;;;27.25;100.00
47983;BME280;33751;50.816;-1.214;2023-12-22T05:46:10;101282.66;;;27.03;100.00
47983;BME280;33751;50.816;-1.214;2023-12-22T05:48:37;101283.41;;;27.08;100.00
47983;BME280;33751;50.816;-1.214;2023-12-22T05:51:03;101295.19;;;27.44;100.00
47983;BME280;33751;50.816;-1.214;2023-12-22T05:53:31;101294.71;;;26.93;100.00
47983;BME280;33751;50.816;-1.214;2023-12-22T05:55:58;101298.23;;;27.34;100.00
47983;BME280;33751;50.816;-1.214;2023-12-22T05:58:25;101295.92;;;27.13;100.00
47983;BME280;33751;50.816;-1.214;2023-12-22T06:00:52;101303.30;;;27.32;100.00
47983;BME280;33751;50.816;-1.214;2023-12-22T06:03:18;101301.17;;;26.92;100.00
47983;BME280;33751;50.816;-1.214;2023-12-22T06:05:45;101295.43;;;27.41;100.00
47983;BME280;33751;50.816;-1.214;2023-12-22T06:08:11;101307.13;;;27.25;100.00
47983;BME280;33751;50.816;-1.214;2023-12-22T06:10:38;101299.64;;;27.17;100.00
47983;BME280;33751;50.816;-1.214;2023-12-22T06:13:05;101299.10;;;26.86;100.00
47983;BME280;33751;50.816;-1.214;2023-12-22T06:15:32;101300.17;;;27.05;100.00
47983;BME280;33751;50.816;-1.214;2023-12-22T06:17:59;101299.38;;;27.07;100.00
47983;BME280;33751;50.816;-1.214;2023-12-22T06:20:25;101295.91;;;27.29;100.00
47983;BME280;33751;50.816;-1.214;2023-12-22T06:22:52;101300.59;;;27.48;100.00
47983;BME280;33751;50.816;-1.214;2023-12-22T06:25:18;101295.87;;;27.23;100.00
47983;BME280;33751;50.816;-1.214;2023-12-22T06:27:45;101295.09;;;26.98;100.00
47983;BME280;33751;50.816;-1.214;2023-12-22T06:30:13;101294.52;;;27.45;100.00
47983;BME280;33751;50.816;-1.214;2023-12-22T06:32:39;101296.86;;;27.44;100.00
47983;BME280;33751;50.816;-1.214;2023-12-22T06:35:07;101291.21;;;27.17;100.00
47983;BME280;33751;50.816;-1.214;2023-12-22T06:37:34;101291.59;;;27.04;100.00
47983;BME280;33751;50.816;-1.214;2023-12-22T06:40:00;101292.77;;;27.28;100.00
47983;BME280;33751;50.816;-1.214;2023-12-22T06:42:27;101286.10;;;26.84;100.00
47983;BME280;33751;50.816;-1.214;2023-12-22T06:44:53;101293.00;;;27.29;100.00
47983;BME280;33751;50.816;-1.214;2023-12-22T06:47:20;101299.71;;;27.37;100.00
47983;BME280;33751;50.816;-1.214;2023-12-22T06:49:47;101306.51;;;27.26;100.00
47983;BME280;33751;50.816;-1.214;2023-12-22T06:52:14;101304.78;;;27.38;100.00
47983;BME280;33751;50.816;-1.214;2023-12-22T06:54:40;101307.54;;;27.45;100.00
47983;BME280;33751;50.816;-1.214;2023-12-22T06:57:07;101304.22;;;27.55;100.00
47983;BME280;33751;50.816;-1.214;2023-12-22T06:59:33;101307.11;;;27.65;100.00
47983;BME280;33751;50.816;-1.214;2023-12-22T07:02:01;101311.94;;;27.75;100.00
47983;BME280;33751;50.816;-1.214;2023-12-22T07:05:01;101303.61;;;28.14;100.00
47983;BME280;33751;50.816;-1.214;2023-12-22T07:07:28;101309.79;;;27.75;100.00
47983;BME280;33751;50.816;-1.214;2023-12-22T07:09:54;101317.59;;;27.59;100.00
47983;BME280;33751;50.816;-1.214;2023-12-22T07:12:21;101321.54;;;27.91;100.00
47983;BME280;33751;50.816;-1.214;2023-12-22T07:14:47;101329.52;;;28.17;100.00
47983;BME280;33751;50.816;-1.214;2023-12-22T07:17:14;101328.21;;;28.19;100.00
47983;BME280;33751;50.816;-1.214;2023-12-22T07:19:41;101334.84;;;27.86;100.00
47983;BME280;33751;50.816;-1.214;2023-12-22T07:22:08;101337.38;;;28.28;100.00
47983;BME280;33751;50.816;-1.214;2023-12-22T07:24:34;101346.67;;;28.30;100.00
47983;BME280;33751;50.816;-1.214;2023-12-22T07:27:01;101348.85;;;28.29;100.00
47983;BME280;33751;50.816;-1.214;2023-12-22T07:29:28;101357.62;;;28.28;100.00
47983;BME280;33751;50.816;-1.214;2023-12-22T07:31:55;101368.64;;;28.12;100.00
47983;BME280;33751;50.816;-1.214;2023-12-22T07:34:22;101373.05;;;28.36;100.00
47983;BME280;33751;50.816;-1.214;2023-12-22T07:36:48;101372.27;;;28.31;100.00
47983;BME280;33751;50.816;-1.214;2023-12-22T07:39:15;101364.19;;;28.13;100.00
47983;BME280;33751;50.816;-1.214;2023-12-22T07:41:42;101370.42;;;28.37;100.00
47983;BME280;33751;50.816;-1.214;2023-12-22T07:44:09;101372.70;;;28.17;100.00
47983;BME280;33751;50.816;-1.214;2023-12-22T07:46:36;101378.98;;;27.91;100.00
47983;BME280;33751;50.816;-1.214;2023-12-22T07:49:03;101377.92;;;28.41;100.00
47983;BME280;33751;50.816;-1.214;2023-12-22T07:51:30;101369.63;;;28.47;100.00
47983;BME280;33751;50.816;-1.214;2023-12-22T07:53:57;101371.69;;;28.52;100.00
47983;BME280;33751;50.816;-1.214;2023-12-22T07:56:24;101374.72;;;28.47;100.00
47983;BME280;33751;50.816;-1.214;2023-12-22T07:58:51;101374.83;;;28.32;100.00
47983;BME280;33751;50.816;-1.214;2023-12-22T08:01:17;101376.45;;;28.16;100.00
47983;BME280;33751;50.816;-1.214;2023-12-22T08:03:44;101382.02;;;28.18;100.00
47983;BME280;33751;50.816;-1.214;2023-12-22T08:06:10;101382.68;;;28.70;100.00
47983;BME280;33751;50.816;-1.214;2023-12-22T08:08:37;101382.45;;;28.64;100.00
47983;BME280;33751;50.816;-1.214;2023-12-22T08:11:04;101383.77;;;28.11;100.00
47983;BME280;33751;50.816;-1.214;2023-12-22T08:13:31;101388.05;;;28.18;100.00
47983;BME280;33751;50.816;-1.214;2023-12-22T08:15:57;101383.65;;;28.42;100.00
47983;BME280;33751;50.816;-1.214;2023-12-22T08:18:24;101376.18;;;28.49;100.00
47983;BME280;33751;50.816;-1.214;2023-12-22T08:20:50;101376.88;;;28.66;100.00
47983;BME280;33751;50.816;-1.214;2023-12-22T08:23:17;101376.72;;;28.65;100.00
47983;BME280;33751;50.816;-1.214;2023-12-22T08:25:43;101384.12;;;28.55;100.00
47983;BME280;33751;50.816;-1.214;2023-12-22T08:28:10;101382.59;;;28.55;100.00
47983;BME280;33751;50.816;-1.214;2023-12-22T08:30:37;101385.95;;;28.27;100.00
47983;BME280;33751;50.816;-1.214;2023-12-22T08:33:04;101383.76;;;28.61;100.00
47983;BME280;33751;50.816;-1.214;2023-12-22T08:35:31;101378.66;;;28.57;100.00
47983;BME280;33751;50.816;-1.214;2023-12-22T08:37:57;101385.14;;;28.56;100.00
47983;BME280;33751;50.816;-1.214;2023-12-22T08:40:24;101392.03;;;28.04;100.00
47983;BME280;33751;50.816;-1.214;2023-12-22T08:42:50;101387.63;;;28.54;100.00
47983;BME280;33751;50.816;-1.214;2023-12-22T08:45:17;101379.88;;;28.54;100.00
47983;BME280;33751;50.816;-1.214;2023-12-22T08:47:44;101380.48;;;28.16;100.00
47983;BME280;33751;50.816;-1.214;2023-12-22T08:50:11;101379.32;;;28.21;100.00
47983;BME280;33751;50.816;-1.214;2023-12-22T08:52:39;101378.35;;;28.56;100.00
47983;BME280;33751;50.816;-1.214;2023-12-22T08:55:06;101398.99;;;28.70;100.00
47983;BME280;33751;50.816;-1.214;2023-12-22T08:57:32;101406.28;;;28.23;100.00
47983;BME280;33751;50.816;-1.214;2023-12-22T08:59:59;101402.49;;;28.57;100.00
47983;BME280;33751;50.816;-1.214;2023-12-22T09:02:25;101409.72;;;28.76;100.00
47983;BME280;33751;50.816;-1.214;2023-12-22T09:04:52;101418.08;;;28.59;100.00
47983;BME280;33751;50.816;-1.214;2023-12-22T09:07:19;101419.89;;;28.49;100.00
47983;BME280;33751;50.816;-1.214;2023-12-22T09:09:46;101420.13;;;28.70;100.00
47983;BME280;33751;50.816;-1.214;2023-12-22T09:12:13;101424.73;;;28.87;100.00
47983;BME280;33751;50.816;-1.214;2023-12-22T09:14:40;101420.78;;;29.11;100.00
47983;BME280;33751;50.816;-1.214;2023-12-22T09:17:07;101418.20;;;28.77;100.00
47983;BME280;33751;50.816;-1.214;2023-12-22T09:19:34;101423.05;;;29.29;100.00
47983;BME280;33751;50.816;-1.214;2023-12-22T09:22:00;101426.16;;;29.60;100.00
47983;BME280;33751;50.816;-1.214;2023-12-22T09:24:27;101428.39;;;29.42;100.00
47983;BME280;33751;50.816;-1.214;2023-12-22T09:26:53;101427.26;;;29.22;100.00
47983;BME280;33751;50.816;-1.214;2023-12-22T09:29:20;101431.96;;;29.49;100.00
47983;BME280;33751;50.816;-1.214;2023-12-22T09:31:47;101425.00;;;29.10;100.00
47983;BME280;33751;50.816;-1.214;2023-12-22T09:34:14;101431.64;;;29.03;100.00
47983;BME280;33751;50.816;-1.214;2023-12-22T09:36:40;101431.68;;;29.21;100.00
47983;BME280;33751;50.816;-1.214;2023-12-22T09:39:07;101438.04;;;29.80;100.00
47983;BME280;33751;50.816;-1.214;2023-12-22T09:41:33;101433.14;;;29.47;100.00
47983;BME280;33751;50.816;-1.214;2023-12-22T09:44:03;101442.44;;;29.60;100.00
47983;BME280;33751;50.816;-1.214;2023-12-22T09:46:31;101444.68;;;29.81;100.00
47983;BME280;33751;50.816;-1.214;2023-12-22T09:48:58;101451.28;;;29.90;100.00
47983;BME280;33751;50.816;-1.214;2023-12-22T09:51:25;101461.29;;;29.55;100.00
47983;BME280;33751;50.816;-1.214;2023-12-22T09:53:54;101455.66;;;29.10;100.00
47983;BME280;33751;50.816;-1.214;2023-12-22T09:56:23;101470.51;;;29.71;100.00
47983;BME280;33751;50.816;-1.214;2023-12-22T09:58:51;101471.39;;;29.64;100.00
47983;BME280;33751;50.816;-1.214;2023-12-22T10:01:20;101468.87;;;29.89;100.00
47983;BME280;33751;50.816;-1.214;2023-12-22T10:03:48;101466.05;;;29.83;100.00
47983;BME280;33751;50.816;-1.214;2023-12-22T10:06:15;101464.47;;;29.95;100.00
47983;BME280;33751;50.816;-1.214;2023-12-22T10:08:43;101470.25;;;29.46;100.00
47983;BME280;33751;50.816;-1.214;2023-12-22T10:11:12;101476.21;;;30.03;100.00
47983;BME280;33751;50.816;-1.214;2023-12-22T10:13:40;101469.92;;;30.00;100.00
47983;BME280;33751;50.816;-1.214;2023-12-22T10:16:08;101474.84;;;30.10;100.00
47983;BME280;33751;50.816;-1.214;2023-12-22T10:18:34;101477.75;;;30.13;100.00
47983;BME280;33751;50.816;-1.214;2023-12-22T10:21:01;101477.38;;;30.11;100.00
47983;BME280;33751;50.816;-1.214;2023-12-22T10:23:28;101479.36;;;30.08;100.00
47983;BME280;33751;50.816;-1.214;2023-12-22T10:25:57;101486.33;;;29.93;100.00
47983;BME280;33751;50.816;-1.214;2023-12-22T10:28:27;101488.67;;;30.15;100.00
47983;BME280;33751;50.816;-1.214;2023-12-22T10:30:56;101489.16;;;30.16;100.00
47983;BME280;33751;50.816;-1.214;2023-12-22T10:33:22;101486.01;;;30.26;100.00
47983;BME280;33751;50.816;-1.214;2023-12-22T10:35:49;101491.31;;;30.27;100.00
47983;BME280;33751;50.816;-1.214;2023-12-22T10:38:18;101492.78;;;29.77;100.00
47983;BME280;33751;50.816;-1.214;2023-12-22T10:40:45;101491.74;;;30.05;100.00
47983;BME280;33751;50.816;-1.214;2023-12-22T10:43:13;101506.38;;;30.05;100.00
47983;BME280;33751;50.816;-1.214;2023-12-22T10:45:40;101499.05;;;30.35;100.00
47983;BME280;33751;50.816;-1.214;2023-12-22T10:48:07;101499.64;;;30.34;100.00
47983;BME280;33751;50.816;-1.214;2023-12-22T10:50:34;101509.94;;;29.90;100.00
47983;BME280;33751;50.816;-1.214;2023-12-22T10:53:00;101510.65;;;29.83;100.00
47983;BME280;33751;50.816;-1.214;2023-12-22T10:55:27;101515.26;;;30.22;100.00
47983;BME280;33751;50.816;-1.214;2023-12-22T10:57:53;101505.96;;;29.97;100.00
47983;BME280;33751;50.816;-1.214;2023-12-22T11:00:21;101503.61;;;29.94;100.00
47983;BME280;33751;50.816;-1.214;2023-12-22T11:02:49;101497.59;;;29.83;100.00
47983;BME280;33751;50.816;-1.214;2023-12-22T11:05:21;101499.57;;;29.68;100.00
47983;BME280;33751;50.816;-1.214;2023-12-22T11:07:55;101509.72;;;29.66;100.00
47983;BME280;33751;50.816;-1.214;2023-12-22T11:10:25;101508.82;;;29.70;100.00
47983;BME280;33751;50.816;-1.214;2023-12-22T11:12:53;101501.00;;;29.90;100.00
47983;BME280;33751;50.816;-1.214;2023-12-22T11:15:24;101495.82;;;29.91;100.00
47983;BME280;33751;50.816;-1.214;2023-12-22T11:17:52;101498.10;;;30.06;100.00
47983;BME280;33751;50.816;-1.214;2023-12-22T11:20:23;101494.88;;;30.11;100.00
47983;BME280;33751;50.816;-1.214;2023-12-22T11:22:51;101501.89;;;30.01;100.00
47983;BME280;33751;50.816;-1.214;2023-12-22T11:25:19;101501.65;;;30.35;100.00
47983;BME280;33751;50.816;-1.214;2023-12-22T11:27:48;101502.21;;;29.86;100.00
47983;BME280;33751;50.816;-1.214;2023-12-22T11:30:19;101502.32;;;30.31;100.00
47983;BME280;33751;50.816;-1.214;2023-12-22T11:32:49;101509.25;;;29.95;100.00
47983;BME280;33751;50.816;-1.214;2023-12-22T11:35:16;101509.02;;;29.83;100.00
47983;BME280;33751;50.816;-1.214;2023-12-22T11:37:43;101506.16;;;29.67;100.00
47983;BME280;33751;50.816;-1.214;2023-12-22T11:40:11;101508.34;;;29.83;100.00
47983;BME280;33751;50.816;-1.214;2023-12-22T11:42:42;101507.10;;;29.80;100.00
47983;BME280;33751;50.816;-1.214;2023-12-22T11:45:10;101506.41;;;30.02;100.00
47983;BME280;33751;50.816;-1.214;2023-12-22T11:47:37;101503.75;;;29.99;100.00
47983;BME280;33751;50.816;-1.214;2023-12-22T11:50:08;101498.08;;;29.75;100.00
47983;BME280;33751;50.816;-1.214;2023-12-22T11:52:35;101500.67;;;29.91;100.00
47983;BME280;33751;50.816;-1.214;2023-12-22T11:55:02;101495.28;;;30.07;100.00
47983;BME280;33751;50.816;-1.214;2023-12-22T11:57:31;101498.42;;;30.05;100.00
47983;BME280;33751;50.816;-1.214;2023-12-22T12:00:02;101503.55;;;30.22;100.00
47983;BME280;33751;50.816;-1.214;2023-12-22T12:02:30;101507.20;;;30.33;100.00
47983;BME280;33751;50.816;-1.214;2023-12-22T12:04:58;101503.01;;;30.21;100.00
47983;BME280;33751;50.816;-1.214;2023-12-22T12:07:37;101504.38;;;30.27;100.00
47983;BME280;33751;50.816;-1.214;2023-12-22T12:10:04;101511.85;;;30.15;100.00
47983;BME280;33751;50.816;-1.214;2023-12-22T12:12:31;101505.08;;;30.04;100.00
47983;BME280;33751;50.816;-1.214;2023-12-22T12:15:07;101496.38;;;30.00;100.00
47983;BME280;33751;50.816;-1.214;2023-12-22T12:17:38;101494.89;;;29.78;100.00
47983;BME280;33751;50.816;-1.214;2023-12-22T12:20:07;101497.40;;;30.29;100.00
47983;BME280;33751;50.816;-1.214;2023-12-22T12:22:34;101490.95;;;29.95;100.00
47983;BME280;33751;50.816;-1.214;2023-12-22T12:25:00;101498.96;;;29.57;100.00
47983;BME280;33751;50.816;-1.214;2023-12-22T12:27:27;101488.78;;;29.28;100.00
47983;BME280;33751;50.816;-1.214;2023-12-22T12:29:56;101489.93;;;29.72;100.00